Millenium Air

Millenium Air Since 1998



 METAR AND TAF INFORMATION
METAR FOR LIPE
ADDS - METARS form results

(1744 UTC 29 May 2020)
Data provider http://aviationweather.gov/metar/data/
 
METAR text: LIPE 291720Z 09007KT 050V140 CAVOK 18/08 Q1019
Conditions at: LIPE (BOLOGNA/BORGO (A, IT) observed 1720 UTC 29 May 2020
Temperature: 18.0°C (64°F)
Dewpoint: 8.0°C (46°F) [RH = 52%]
Pressure (altimeter): 30.09 inches Hg (1019.0 mb)
Winds: from the E (90 degrees) at 8 MPH (7 knots; 3.6 m/s)
Visibility: 6 or more miles (10+ km)
Ceiling: ceiling and visibility are OK
Clouds: unknown
Weather: no significant weather observed at this time

METAR text: LIPE 291650Z 11006KT CAVOK 18/07 Q1019
Conditions at: LIPE (BOLOGNA/BORGO (A, IT) observed 1650 UTC 29 May 2020
Temperature: 18.0°C (64°F)
Dewpoint: 7.0°C (45°F) [RH = 49%]
Pressure (altimeter): 30.09 inches Hg (1019.0 mb)
Winds: from the ESE (110 degrees) at 7 MPH (6 knots; 3.1 m/s)
Visibility: 6 or more miles (10+ km)
Ceiling: ceiling and visibility are OK
Clouds: unknown
Weather: no significant weather observed at this time

Forecast for: LIPE (BOLOGNA/BORGO (A, IT)
Text: TAF LIPE 291700Z 2918/3018 VRB05KT 9999 SCT040
Forecast period: 1800 UTC 29 May 2020 to 1000 UTC 30 May 2020
Forecast type: FROM: standard forecast or significant change
Winds: variable direction winds at 6 MPH (5 knots; 2.6 m/s)
Visibility: 6 or more miles 10+ km)
Ceiling: at least 12,000 feet AGL
Clouds: scattered clouds at 4000 feet AGL
Weather: no significant weather forecast for this period
Text: BECMG 3010/3018 10010KT
Forecast period: 1000 to 1800 UTC 30 May 2020
Forecast type: BECOMING: Conditions expected to become as follows by 1800 UTC 30 May 2020
Winds: from the E (100 degrees) at 12 MPH (10 knots; 5.1 m/s)
Visibility: 6 or more miles 10+ km)
Ceiling: at least 12,000 feet AGL
Clouds: scattered clouds at 4000 feet AGL
Weather: no significant weather forecast for this period

 AIRPORT MAP

 RUNWAY INFORMATION
Runway 12 Runway length 9186 ft Runway width 150 ft
Runway elevation 120 ft Runway displaced threshold 1007 ft Runway heading 117
Runway 30 Runway length 9186 ft Runway width 150 ft
Runway elevation 120 ft Runway displaced threshold 1188 ft Runway heading 297

 AIRPORT FREQUENCIES
Type APP Name APP Frequency 120.1 MHZ
Type ATIS Name ATIS Frequency 134.875 MHZ
Type GND Name GND Frequency 129.925 MHZ
Type TWR Name TWR Frequency 120.8 MHZ

 AIRPORT NEAR NAVIGATION AIDS
Type VOR-DME Name Bologna Frequency 112200 KHZ
Type NDB Name Bologna Frequency 413 KHZ